Pagrindinis puslapis
METAR-TAF:

METAR-TAF

Oro uostai :

Wekweeti, Šiaurės Vakarai, Kanada

platuma: 64-11-27N, ilguma: 114-04-36W, Aukštis: 368 m

Dabartinis oras

Ataskaita buvo paskelbta 1 valandą ir 2 minutes, ne 09:00 UTC
Vėjas 4 kt iš Pietryčių
Temperatūra 1°C
Drėgmė 75%
Slėgis 1019 hPa
Matomumas: 14.5 km
Giedras dangus

METAR: CYWE 050900Z AUTO 13004KT 9SM CLR 01/M03 A3009 RMK SLP215

Laikas: 04:02 (10:02 UTC)

Prognozė

Ataskaita buvo paskelbta 15 valandos ir 24 minutes, ne 18:38 UTC
Prognozė galioja nuo 04 metu 19 UTC su 05 metu 01 UTC
Vėjas 3 kt nuo kintamojo kryptimis
Matomumas: 10 km
Išsisklaidę debesys ne aukštis 3000 ft
Laikinai
nuo 04 metu 19 UTC su 04 metu 21 UTC
Su prošvaistėmis ne aukštis 3000 ft
Nuo 04 metu 2100 UTC
Vėjas 5 kt iš Rytų
Matomumas: 10 km
Mažai debesys ne aukštis 3000 ft

TAF: CYWE 041838Z 0419/0501 VRB03KT P6SM SCT030 TEMPO 0419/0421 BKN030 FM042100 09005KT P6SM FEW030 RMK FCST BASED ON AUTO OBS. NXT FCST WILL BE ISSUED AT 051245Z

Orai ataskaitas ir orų prognozės (METAR, TAF).

turimą stotys yra geltonos ir raudonos taškus žemėlapyje.

Perkelti pele per norėdami pamatyti stoties vardą.

Tada spustelėkite, norėdami matyti oro stebėjimo ir prognozės.

Norėdami pakeisti žemėlapį: spustelėkite ant žalios mygtukų su juodo kryžiaus žemyn,; žalią mygtuką su brūkšneliu, jei norite nutolinti; arba žalių rodyklių gretimoms žemėlapius.


METAR-TAF: